sensor_id;sensor_type;location;lat;lon;timestamp;temperature;humidity
46508;DHT22;32223;53.654;10.014;2023-06-14T00:01:53;13.70;99.90
46508;DHT22;32223;53.654;10.014;2023-06-14T00:04:19;13.70;99.90
46508;DHT22;32223;53.654;10.014;2023-06-14T00:06:46;13.60;99.90
46508;DHT22;32223;53.654;10.014;2023-06-14T00:09:12;13.70;99.90
46508;DHT22;32223;53.654;10.014;2023-06-14T00:11:43;13.70;99.90
46508;DHT22;32223;53.654;10.014;2023-06-14T00:14:09;13.80;99.90
46508;DHT22;32223;53.654;10.014;2023-06-14T00:16:35;13.90;99.90
46508;DHT22;32223;53.654;10.014;2023-06-14T00:19:04;13.90;99.90
46508;DHT22;32223;53.654;10.014;2023-06-14T00:21:30;13.80;99.90
46508;DHT22;32223;53.654;10.014;2023-06-14T00:23:57;13.70;99.90
46508;DHT22;32223;53.654;10.014;2023-06-14T00:26:23;13.70;99.90
46508;DHT22;32223;53.654;10.014;2023-06-14T00:28:48;13.60;99.90
46508;DHT22;32223;53.654;10.014;2023-06-14T00:31:14;13.60;99.90
46508;DHT22;32223;53.654;10.014;2023-06-14T00:33:40;13.70;99.90
46508;DHT22;32223;53.654;10.014;2023-06-14T00:36:06;13.70;99.90
46508;DHT22;32223;53.654;10.014;2023-06-14T00:38:31;13.80;99.90
46508;DHT22;32223;53.654;10.014;2023-06-14T00:40:57;13.90;99.90
46508;DHT22;32223;53.654;10.014;2023-06-14T00:43:22;14.00;99.90
46508;DHT22;32223;53.654;10.014;2023-06-14T00:45:48;14.20;99.90
46508;DHT22;32223;53.654;10.014;2023-06-14T00:48:15;14.20;99.90
46508;DHT22;32223;53.654;10.014;2023-06-14T00:50:41;14.30;99.90
46508;DHT22;32223;53.654;10.014;2023-06-14T00:53:07;14.30;99.90
46508;DHT22;32223;53.654;10.014;2023-06-14T00:55:32;14.30;99.90
46508;DHT22;32223;53.654;10.014;2023-06-14T00:57:58;14.30;99.90
46508;DHT22;32223;53.654;10.014;2023-06-14T01:00:24;14.40;99.90
46508;DHT22;32223;53.654;10.014;2023-06-14T01:02:50;14.40;99.90
46508;DHT22;32223;53.654;10.014;2023-06-14T01:05:16;14.20;99.90
46508;DHT22;32223;53.654;10.014;2023-06-14T01:10:29;14.30;99.90
46508;DHT22;32223;53.654;10.014;2023-06-14T01:12:58;14.00;99.90
46508;DHT22;32223;53.654;10.014;2023-06-14T01:15:27;13.80;99.90
46508;DHT22;32223;53.654;10.014;2023-06-14T01:17:54;13.70;99.90
46508;DHT22;32223;53.654;10.014;2023-06-14T01:20:31;13.90;99.90
46508;DHT22;32223;53.654;10.014;2023-06-14T01:22:58;13.90;99.90
46508;DHT22;32223;53.654;10.014;2023-06-14T01:25:24;13.80;99.90
46508;DHT22;32223;53.654;10.014;2023-06-14T01:27:55;13.70;99.90
46508;DHT22;32223;53.654;10.014;2023-06-14T01:30:23;13.70;99.90
46508;DHT22;32223;53.654;10.014;2023-06-14T01:32:51;13.50;99.90
46508;DHT22;32223;53.654;10.014;2023-06-14T01:35:18;13.40;99.90
46508;DHT22;32223;53.654;10.014;2023-06-14T01:37:46;13.50;99.90
46508;DHT22;32223;53.654;10.014;2023-06-14T01:40:12;13.50;99.90
46508;DHT22;32223;53.654;10.014;2023-06-14T01:42:40;13.60;99.90
46508;DHT22;32223;53.654;10.014;2023-06-14T01:45:07;13.40;99.90
46508;DHT22;32223;53.654;10.014;2023-06-14T01:47:33;13.30;99.90
46508;DHT22;32223;53.654;10.014;2023-06-14T01:50:02;13.30;99.90
46508;DHT22;32223;53.654;10.014;2023-06-14T01:52:28;13.30;99.90
46508;DHT22;32223;53.654;10.014;2023-06-14T01:54:54;13.40;99.90
46508;DHT22;32223;53.654;10.014;2023-06-14T01:57:19;13.40;99.90
46508;DHT22;32223;53.654;10.014;2023-06-14T01:59:46;13.50;99.90
46508;DHT22;32223;53.654;10.014;2023-06-14T02:02:14;13.70;99.90
46508;DHT22;32223;53.654;10.014;2023-06-14T02:04:39;13.80;99.90
46508;DHT22;32223;53.654;10.014;2023-06-14T02:07:05;13.90;99.90
46508;DHT22;32223;53.654;10.014;2023-06-14T02:09:31;14.10;99.90
46508;DHT22;32223;53.654;10.014;2023-06-14T02:11:56;14.00;99.90
46508;DHT22;32223;53.654;10.014;2023-06-14T02:14:22;14.00;99.90
46508;DHT22;32223;53.654;10.014;2023-06-14T02:16:48;13.90;99.90
46508;DHT22;32223;53.654;10.014;2023-06-14T02:19:18;13.90;99.90
46508;DHT22;32223;53.654;10.014;2023-06-14T02:21:45;14.00;99.90
46508;DHT22;32223;53.654;10.014;2023-06-14T02:24:10;14.10;99.90
46508;DHT22;32223;53.654;10.014;2023-06-14T02:26:36;14.20;99.90
46508;DHT22;32223;53.654;10.014;2023-06-14T02:29:07;14.30;99.90
46508;DHT22;32223;53.654;10.014;2023-06-14T02:31:35;14.30;99.90
46508;DHT22;32223;53.654;10.014;2023-06-14T02:34:01;14.10;99.90
46508;DHT22;32223;53.654;10.014;2023-06-14T02:36:27;14.30;99.90
46508;DHT22;32223;53.654;10.014;2023-06-14T02:38:55;14.20;99.90
46508;DHT22;32223;53.654;10.014;2023-06-14T02:41:23;14.00;99.90
46508;DHT22;32223;53.654;10.014;2023-06-14T02:43:48;14.00;99.90
46508;DHT22;32223;53.654;10.014;2023-06-14T02:46:14;14.00;99.90
46508;DHT22;32223;53.654;10.014;2023-06-14T02:48:40;13.90;99.90
46508;DHT22;32223;53.654;10.014;2023-06-14T02:51:06;13.80;99.90
46508;DHT22;32223;53.654;10.014;2023-06-14T02:53:32;13.90;99.90
46508;DHT22;32223;53.654;10.014;2023-06-14T02:55:57;13.80;99.90
46508;DHT22;32223;53.654;10.014;2023-06-14T02:58:23;13.70;99.90
46508;DHT22;32223;53.654;10.014;2023-06-14T03:00:50;13.60;99.90
46508;DHT22;32223;53.654;10.014;2023-06-14T03:03:17;13.50;99.90
46508;DHT22;32223;53.654;10.014;2023-06-14T03:05:45;13.50;99.90
46508;DHT22;32223;53.654;10.014;2023-06-14T03:08:13;13.50;99.90
46508;DHT22;32223;53.654;10.014;2023-06-14T03:10:48;13.30;99.90
46508;DHT22;32223;53.654;10.014;2023-06-14T03:13:17;13.40;99.90
46508;DHT22;32223;53.654;10.014;2023-06-14T03:15:46;13.30;99.90
46508;DHT22;32223;53.654;10.014;2023-06-14T03:18:18;13.20;99.90
46508;DHT22;32223;53.654;10.014;2023-06-14T03:20:44;13.30;99.90
46508;DHT22;32223;53.654;10.014;2023-06-14T03:23:11;13.30;99.90
46508;DHT22;32223;53.654;10.014;2023-06-14T03:25:37;13.30;99.90
46508;DHT22;32223;53.654;10.014;2023-06-14T03:28:04;13.30;99.90
46508;DHT22;32223;53.654;10.014;2023-06-14T03:30:30;13.30;99.90
46508;DHT22;32223;53.654;10.014;2023-06-14T03:32:56;13.40;99.90
46508;DHT22;32223;53.654;10.014;2023-06-14T03:35:23;13.50;99.90
46508;DHT22;32223;53.654;10.014;2023-06-14T03:37:49;13.60;99.90
46508;DHT22;32223;53.654;10.014;2023-06-14T03:40:17;13.60;99.90
46508;DHT22;32223;53.654;10.014;2023-06-14T03:42:43;13.60;99.90
46508;DHT22;32223;53.654;10.014;2023-06-14T03:45:09;13.70;99.90
46508;DHT22;32223;53.654;10.014;2023-06-14T03:47:35;13.60;99.90
46508;DHT22;32223;53.654;10.014;2023-06-14T03:50:04;13.80;99.90
46508;DHT22;32223;53.654;10.014;2023-06-14T03:52:31;13.80;99.90
46508;DHT22;32223;53.654;10.014;2023-06-14T03:54:58;13.70;99.90
46508;DHT22;32223;53.654;10.014;2023-06-14T03:57:25;13.60;99.90
46508;DHT22;32223;53.654;10.014;2023-06-14T03:59:51;13.60;99.90
46508;DHT22;32223;53.654;10.014;2023-06-14T04:02:17;13.70;99.90
46508;DHT22;32223;53.654;10.014;2023-06-14T04:04:44;13.80;99.90
46508;DHT22;32223;53.654;10.014;2023-06-14T04:07:14;14.00;99.90
46508;DHT22;32223;53.654;10.014;2023-06-14T04:09:40;14.00;99.90
46508;DHT22;32223;53.654;10.014;2023-06-14T04:12:07;14.00;99.90
46508;DHT22;32223;53.654;10.014;2023-06-14T04:14:34;13.90;99.90
46508;DHT22;32223;53.654;10.014;2023-06-14T04:17:03;13.90;99.90
46508;DHT22;32223;53.654;10.014;2023-06-14T04:19:28;13.90;99.90
46508;DHT22;32223;53.654;10.014;2023-06-14T04:21:54;14.10;99.90
46508;DHT22;32223;53.654;10.014;2023-06-14T04:24:20;14.20;99.90
46508;DHT22;32223;53.654;10.014;2023-06-14T04:26:46;14.10;99.90
46508;DHT22;32223;53.654;10.014;2023-06-14T04:29:14;14.10;99.90
46508;DHT22;32223;53.654;10.014;2023-06-14T04:31:44;14.10;99.90
46508;DHT22;32223;53.654;10.014;2023-06-14T04:34:15;14.10;99.90
46508;DHT22;32223;53.654;10.014;2023-06-14T04:36:44;14.20;99.90
46508;DHT22;32223;53.654;10.014;2023-06-14T04:39:20;14.50;99.90
46508;DHT22;32223;53.654;10.014;2023-06-14T04:41:46;14.50;99.90
46508;DHT22;32223;53.654;10.014;2023-06-14T04:44:13;14.40;99.90
46508;DHT22;32223;53.654;10.014;2023-06-14T04:46:39;14.40;99.90
46508;DHT22;32223;53.654;10.014;2023-06-14T04:49:19;14.50;99.90
46508;DHT22;32223;53.654;10.014;2023-06-14T04:51:45;14.40;99.90
46508;DHT22;32223;53.654;10.014;2023-06-14T04:54:12;14.30;99.90
46508;DHT22;32223;53.654;10.014;2023-06-14T04:56:41;14.30;99.90
46508;DHT22;32223;53.654;10.014;2023-06-14T04:59:11;14.40;99.90
46508;DHT22;32223;53.654;10.014;2023-06-14T05:01:38;14.40;99.90
46508;DHT22;32223;53.654;10.014;2023-06-14T05:04:09;14.50;99.90
46508;DHT22;32223;53.654;10.014;2023-06-14T05:06:35;14.50;99.90
46508;DHT22;32223;53.654;10.014;2023-06-14T05:09:01;14.70;99.90
46508;DHT22;32223;53.654;10.014;2023-06-14T05:11:27;14.80;99.90
46508;DHT22;32223;53.654;10.014;2023-06-14T05:13:53;14.90;99.90
46508;DHT22;32223;53.654;10.014;2023-06-14T05:16:18;14.90;99.90
46508;DHT22;32223;53.654;10.014;2023-06-14T05:18:45;15.00;99.90
46508;DHT22;32223;53.654;10.014;2023-06-14T05:21:13;15.10;99.90
46508;DHT22;32223;53.654;10.014;2023-06-14T05:23:41;15.20;99.90
46508;DHT22;32223;53.654;10.014;2023-06-14T05:26:07;15.30;99.90
46508;DHT22;32223;53.654;10.014;2023-06-14T05:28:32;15.40;99.90
46508;DHT22;32223;53.654;10.014;2023-06-14T05:30:58;15.40;99.90
46508;DHT22;32223;53.654;10.014;2023-06-14T05:33:23;15.40;99.90
46508;DHT22;32223;53.654;10.014;2023-06-14T05:35:49;15.60;99.90
46508;DHT22;32223;53.654;10.014;2023-06-14T05:38:15;15.50;99.90
46508;DHT22;32223;53.654;10.014;2023-06-14T05:40:41;15.50;99.90
46508;DHT22;32223;53.654;10.014;2023-06-14T05:43:06;15.60;99.90
46508;DHT22;32223;53.654;10.014;2023-06-14T05:45:32;15.60;99.90
46508;DHT22;32223;53.654;10.014;2023-06-14T05:47:57;15.80;99.90
46508;DHT22;32223;53.654;10.014;2023-06-14T05:50:23;15.90;99.90
46508;DHT22;32223;53.654;10.014;2023-06-14T05:52:48;16.00;99.90
46508;DHT22;32223;53.654;10.014;2023-06-14T05:55:16;16.00;99.90
46508;DHT22;32223;53.654;10.014;2023-06-14T05:57:42;16.00;99.90
46508;DHT22;32223;53.654;10.014;2023-06-14T06:00:08;16.10;99.90
46508;DHT22;32223;53.654;10.014;2023-06-14T06:02:41;16.20;99.90
46508;DHT22;32223;53.654;10.014;2023-06-14T06:05:09;16.30;99.90
46508;DHT22;32223;53.654;10.014;2023-06-14T06:07:35;16.40;99.90
46508;DHT22;32223;53.654;10.014;2023-06-14T06:10:01;16.80;99.90
46508;DHT22;32223;53.654;10.014;2023-06-14T06:12:27;16.90;99.90
46508;DHT22;32223;53.654;10.014;2023-06-14T06:14:52;16.90;99.90
46508;DHT22;32223;53.654;10.014;2023-06-14T06:17:18;17.10;99.90
46508;DHT22;32223;53.654;10.014;2023-06-14T06:19:44;17.10;99.90
46508;DHT22;32223;53.654;10.014;2023-06-14T06:22:09;17.00;99.90
46508;DHT22;32223;53.654;10.014;2023-06-14T06:24:35;17.10;99.90
46508;DHT22;32223;53.654;10.014;2023-06-14T06:27:00;17.30;99.90
46508;DHT22;32223;53.654;10.014;2023-06-14T06:29:27;17.40;99.90
46508;DHT22;32223;53.654;10.014;2023-06-14T06:31:53;17.40;99.90
46508;DHT22;32223;53.654;10.014;2023-06-14T06:34:19;17.30;99.90
46508;DHT22;32223;53.654;10.014;2023-06-14T06:36:44;17.50;99.90
46508;DHT22;32223;53.654;10.014;2023-06-14T06:39:10;17.70;99.90
46508;DHT22;32223;53.654;10.014;2023-06-14T06:41:39;18.00;99.90
46508;DHT22;32223;53.654;10.014;2023-06-14T06:44:08;18.10;99.90
46508;DHT22;32223;53.654;10.014;2023-06-14T06:46:36;18.40;99.90
46508;DHT22;32223;53.654;10.014;2023-06-14T06:49:05;18.50;99.90
46508;DHT22;32223;53.654;10.014;2023-06-14T06:51:31;18.60;99.90
46508;DHT22;32223;53.654;10.014;2023-06-14T06:53:57;18.80;99.90
46508;DHT22;32223;53.654;10.014;2023-06-14T06:56:22;18.80;99.90
46508;DHT22;32223;53.654;10.014;2023-06-14T06:58:51;18.90;99.90
46508;DHT22;32223;53.654;10.014;2023-06-14T07:01:17;19.00;99.90
46508;DHT22;32223;53.654;10.014;2023-06-14T07:03:44;19.00;99.90
46508;DHT22;32223;53.654;10.014;2023-06-14T07:06:09;19.10;99.90
46508;DHT22;32223;53.654;10.014;2023-06-14T07:08:35;19.20;99.90
46508;DHT22;32223;53.654;10.014;2023-06-14T07:11:01;19.40;99.90
46508;DHT22;32223;53.654;10.014;2023-06-14T07:13:27;19.40;99.90
46508;DHT22;32223;53.654;10.014;2023-06-14T07:15:58;19.40;99.90
46508;DHT22;32223;53.654;10.014;2023-06-14T07:18:25;19.50;99.90
46508;DHT22;32223;53.654;10.014;2023-06-14T07:20:51;19.70;99.90
46508;DHT22;32223;53.654;10.014;2023-06-14T07:23:17;20.00;99.90
46508;DHT22;32223;53.654;10.014;2023-06-14T07:25:43;20.00;99.90
46508;DHT22;32223;53.654;10.014;2023-06-14T07:28:08;19.80;99.90
46508;DHT22;32223;53.654;10.014;2023-06-14T07:30:34;19.80;99.90
46508;DHT22;32223;53.654;10.014;2023-06-14T07:33:00;19.70;99.90
46508;DHT22;32223;53.654;10.014;2023-06-14T07:35:26;19.70;99.90
46508;DHT22;32223;53.654;10.014;2023-06-14T07:37:52;19.90;99.90
46508;DHT22;32223;53.654;10.014;2023-06-14T07:40:18;20.10;99.90
46508;DHT22;32223;53.654;10.014;2023-06-14T07:42:43;20.30;99.90
46508;DHT22;32223;53.654;10.014;2023-06-14T07:45:09;20.40;99.90
46508;DHT22;32223;53.654;10.014;2023-06-14T07:47:35;20.30;99.90
46508;DHT22;32223;53.654;10.014;2023-06-14T07:50:01;20.30;99.90
46508;DHT22;32223;53.654;10.014;2023-06-14T07:52:26;20.50;99.90
46508;DHT22;32223;53.654;10.014;2023-06-14T07:54:52;20.60;99.90
46508;DHT22;32223;53.654;10.014;2023-06-14T07:57:17;20.70;99.90
46508;DHT22;32223;53.654;10.014;2023-06-14T07:59:45;20.70;99.90
46508;DHT22;32223;53.654;10.014;2023-06-14T08:02:11;20.80;99.90
46508;DHT22;32223;53.654;10.014;2023-06-14T08:04:37;20.90;99.90
46508;DHT22;32223;53.654;10.014;2023-06-14T08:07:03;21.00;99.90
46508;DHT22;32223;53.654;10.014;2023-06-14T08:09:29;21.20;99.90
46508;DHT22;32223;53.654;10.014;2023-06-14T08:11:55;21.20;99.90
46508;DHT22;32223;53.654;10.014;2023-06-14T08:14:21;21.30;99.90
46508;DHT22;32223;53.654;10.014;2023-06-14T08:16:47;21.20;99.90
46508;DHT22;32223;53.654;10.014;2023-06-14T08:19:13;21.30;99.90
46508;DHT22;32223;53.654;10.014;2023-06-14T08:21:38;21.40;99.90
46508;DHT22;32223;53.654;10.014;2023-06-14T08:24:05;21.40;99.90
46508;DHT22;32223;53.654;10.014;2023-06-14T08:26:31;21.40;99.90
46508;DHT22;32223;53.654;10.014;2023-06-14T08:28:57;21.40;99.90
46508;DHT22;32223;53.654;10.014;2023-06-14T08:31:23;21.40;99.90
46508;DHT22;32223;53.654;10.014;2023-06-14T08:33:50;21.40;99.90
46508;DHT22;32223;53.654;10.014;2023-06-14T08:36:15;21.50;99.90
46508;DHT22;32223;53.654;10.014;2023-06-14T08:38:41;21.70;99.90
46508;DHT22;32223;53.654;10.014;2023-06-14T08:41:08;21.80;99.90
46508;DHT22;32223;53.654;10.014;2023-06-14T08:43:37;21.90;99.90
46508;DHT22;32223;53.654;10.014;2023-06-14T08:46:03;22.10;99.90
46508;DHT22;32223;53.654;10.014;2023-06-14T08:48:30;22.20;99.90
46508;DHT22;32223;53.654;10.014;2023-06-14T08:51:02;22.20;99.90
46508;DHT22;32223;53.654;10.014;2023-06-14T08:53:31;22.30;99.90
46508;DHT22;32223;53.654;10.014;2023-06-14T08:56:01;22.20;99.90
46508;DHT22;32223;53.654;10.014;2023-06-14T08:58:28;22.30;99.90
46508;DHT22;32223;53.654;10.014;2023-06-14T09:00:57;22.40;99.90
46508;DHT22;32223;53.654;10.014;2023-06-14T09:03:23;22.30;99.90
46508;DHT22;32223;53.654;10.014;2023-06-14T09:05:57;22.40;99.90
46508;DHT22;32223;53.654;10.014;2023-06-14T09:08:27;22.40;99.90
46508;DHT22;32223;53.654;10.014;2023-06-14T09:10:56;22.50;99.90
46508;DHT22;32223;53.654;10.014;2023-06-14T09:13:22;22.40;99.90
46508;DHT22;32223;53.654;10.014;2023-06-14T09:15:47;22.40;99.90
46508;DHT22;32223;53.654;10.014;2023-06-14T09:18:13;22.40;99.90
46508;DHT22;32223;53.654;10.014;2023-06-14T09:20:40;22.30;99.90
46508;DHT22;32223;53.654;10.014;2023-06-14T09:23:06;22.30;99.90
46508;DHT22;32223;53.654;10.014;2023-06-14T09:25:45;22.40;99.90
46508;DHT22;32223;53.654;10.014;2023-06-14T09:28:11;22.60;99.90
46508;DHT22;32223;53.654;10.014;2023-06-14T09:30:37;22.40;99.90
46508;DHT22;32223;53.654;10.014;2023-06-14T09:33:03;22.40;99.90
46508;DHT22;32223;53.654;10.014;2023-06-14T09:35:31;22.30;99.90
46508;DHT22;32223;53.654;10.014;2023-06-14T09:37:57;22.20;99.90
46508;DHT22;32223;53.654;10.014;2023-06-14T09:40:23;22.50;99.90
46508;DHT22;32223;53.654;10.014;2023-06-14T09:42:49;22.70;99.90
46508;DHT22;32223;53.654;10.014;2023-06-14T09:45:15;22.90;99.90
46508;DHT22;32223;53.654;10.014;2023-06-14T09:47:48;22.90;99.90
46508;DHT22;32223;53.654;10.014;2023-06-14T09:50:14;23.10;99.90
46508;DHT22;32223;53.654;10.014;2023-06-14T09:52:43;23.20;99.90
46508;DHT22;32223;53.654;10.014;2023-06-14T09:55:12;23.40;99.90
46508;DHT22;32223;53.654;10.014;2023-06-14T09:57:41;23.60;99.90
46508;DHT22;32223;53.654;10.014;2023-06-14T10:00:08;23.80;99.90
46508;DHT22;32223;53.654;10.014;2023-06-14T10:02:37;23.90;99.90
46508;DHT22;32223;53.654;10.014;2023-06-14T10:05:04;24.00;99.90
46508;DHT22;32223;53.654;10.014;2023-06-14T10:07:53;24.10;99.90
46508;DHT22;32223;53.654;10.014;2023-06-14T10:10:19;24.10;99.90
46508;DHT22;32223;53.654;10.014;2023-06-14T10:12:45;23.80;99.90
46508;DHT22;32223;53.654;10.014;2023-06-14T10:15:17;23.60;99.90
46508;DHT22;32223;53.654;10.014;2023-06-14T10:17:56;23.60;99.90
46508;DHT22;32223;53.654;10.014;2023-06-14T10:20:39;23.80;99.90
46508;DHT22;32223;53.654;10.014;2023-06-14T10:23:17;23.70;99.70
46508;DHT22;32223;53.654;10.014;2023-06-14T10:25:44;23.90;99.90
46508;DHT22;32223;53.654;10.014;2023-06-14T10:28:19;24.20;99.90
46508;DHT22;32223;53.654;10.014;2023-06-14T10:31:23;24.70;99.90
46508;DHT22;32223;53.654;10.014;2023-06-14T10:33:52;24.90;98.90
46508;DHT22;32223;53.654;10.014;2023-06-14T10:36:28;25.30;98.00
46508;DHT22;32223;53.654;10.014;2023-06-14T10:39:16;25.20;97.40
46508;DHT22;32223;53.654;10.014;2023-06-14T10:41:51;24.60;96.90
46508;DHT22;32223;53.654;10.014;2023-06-14T10:46:55;24.10;96.20
46508;DHT22;32223;53.654;10.014;2023-06-14T10:49:45;23.80;97.30
46508;DHT22;32223;53.654;10.014;2023-06-14T10:52:20;24.10;97.10
46508;DHT22;32223;53.654;10.014;2023-06-14T10:55:11;24.70;97.30
46508;DHT22;32223;53.654;10.014;2023-06-14T10:57:45;24.90;96.60
46508;DHT22;32223;53.654;10.014;2023-06-14T11:00:13;24.90;96.10
46508;DHT22;32223;53.654;10.014;2023-06-14T11:10:51;23.90;96.20
46508;DHT22;32223;53.654;10.014;2023-06-14T11:13:17;23.90;96.50
46508;DHT22;32223;53.654;10.014;2023-06-14T11:15:47;24.20;96.90
46508;DHT22;32223;53.654;10.014;2023-06-14T11:18:13;24.70;98.20
46508;DHT22;32223;53.654;10.014;2023-06-14T11:20:40;25.10;96.70
46508;DHT22;32223;53.654;10.014;2023-06-14T11:23:06;24.90;96.60
46508;DHT22;32223;53.654;10.014;2023-06-14T11:25:31;24.30;95.00
46508;DHT22;32223;53.654;10.014;2023-06-14T11:27:57;23.90;95.80
46508;DHT22;32223;53.654;10.014;2023-06-14T11:30:23;23.60;96.20
46508;DHT22;32223;53.654;10.014;2023-06-14T11:32:52;23.60;96.90
46508;DHT22;32223;53.654;10.014;2023-06-14T11:35:19;23.50;96.20
46508;DHT22;32223;53.654;10.014;2023-06-14T11:37:45;23.80;97.20
46508;DHT22;32223;53.654;10.014;2023-06-14T11:40:12;24.30;96.00
46508;DHT22;32223;53.654;10.014;2023-06-14T11:42:39;25.00;95.80
46508;DHT22;32223;53.654;10.014;2023-06-14T11:45:12;25.60;95.30
46508;DHT22;32223;53.654;10.014;2023-06-14T11:47:39;25.90;95.20
46508;DHT22;32223;53.654;10.014;2023-06-14T11:50:07;26.00;95.10
46508;DHT22;32223;53.654;10.014;2023-06-14T11:52:33;25.90;94.10
46508;DHT22;32223;53.654;10.014;2023-06-14T11:54:59;26.10;93.70
46508;DHT22;32223;53.654;10.014;2023-06-14T11:57:25;26.10;93.10
46508;DHT22;32223;53.654;10.014;2023-06-14T11:59:51;26.20;92.90
46508;DHT22;32223;53.654;10.014;2023-06-14T12:02:18;26.00;92.40
46508;DHT22;32223;53.654;10.014;2023-06-14T12:04:47;25.60;92.70
46508;DHT22;32223;53.654;10.014;2023-06-14T12:07:16;25.60;92.80
46508;DHT22;32223;53.654;10.014;2023-06-14T12:12:25;26.20;91.80
46508;DHT22;32223;53.654;10.014;2023-06-14T12:14:51;26.50;92.10
46508;DHT22;32223;53.654;10.014;2023-06-14T12:17:17;27.00;92.30
46508;DHT22;32223;53.654;10.014;2023-06-14T12:19:44;27.00;90.30
46508;DHT22;32223;53.654;10.014;2023-06-14T12:22:11;26.50;90.30
46508;DHT22;32223;53.654;10.014;2023-06-14T12:24:37;26.40;91.30
46508;DHT22;32223;53.654;10.014;2023-06-14T12:27:06;26.60;91.60
46508;DHT22;32223;53.654;10.014;2023-06-14T12:29:32;27.00;90.70
46508;DHT22;32223;53.654;10.014;2023-06-14T12:31:58;27.20;90.50
46508;DHT22;32223;53.654;10.014;2023-06-14T12:34:24;26.80;89.70
46508;DHT22;32223;53.654;10.014;2023-06-14T12:36:53;26.60;88.30
46508;DHT22;32223;53.654;10.014;2023-06-14T12:39:19;26.30;89.30
46508;DHT22;32223;53.654;10.014;2023-06-14T12:41:46;26.20;89.80
46508;DHT22;32223;53.654;10.014;2023-06-14T12:44:12;25.80;90.30
46508;DHT22;32223;53.654;10.014;2023-06-14T12:46:39;25.60;90.40
46508;DHT22;32223;53.654;10.014;2023-06-14T12:49:09;25.40;90.40
46508;DHT22;32223;53.654;10.014;2023-06-14T12:51:35;25.10;90.70
46508;DHT22;32223;53.654;10.014;2023-06-14T12:54:00;25.00;91.30
46508;DHT22;32223;53.654;10.014;2023-06-14T12:56:26;25.50;90.70
46508;DHT22;32223;53.654;10.014;2023-06-14T12:58:52;26.00;90.60
46508;DHT22;32223;53.654;10.014;2023-06-14T13:01:18;26.50;89.90
46508;DHT22;32223;53.654;10.014;2023-06-14T13:03:44;27.00;88.80
46508;DHT22;32223;53.654;10.014;2023-06-14T13:06:10;27.60;87.80
46508;DHT22;32223;53.654;10.014;2023-06-14T13:08:35;28.30;88.30
46508;DHT22;32223;53.654;10.014;2023-06-14T13:11:01;29.00;86.20
46508;DHT22;32223;53.654;10.014;2023-06-14T13:13:26;28.70;81.10
46508;DHT22;32223;53.654;10.014;2023-06-14T13:15:52;29.00;80.40
46508;DHT22;32223;53.654;10.014;2023-06-14T13:18:18;29.40;79.80
46508;DHT22;32223;53.654;10.014;2023-06-14T13:20:44;29.90;78.80
46508;DHT22;32223;53.654;10.014;2023-06-14T13:23:10;30.50;77.50
46508;DHT22;32223;53.654;10.014;2023-06-14T13:25:37;31.00;75.70
46508;DHT22;32223;53.654;10.014;2023-06-14T13:28:04;31.20;74.00
46508;DHT22;32223;53.654;10.014;2023-06-14T13:30:30;30.70;71.70
46508;DHT22;32223;53.654;10.014;2023-06-14T13:32:56;30.60;70.60
46508;DHT22;32223;53.654;10.014;2023-06-14T13:35:23;30.70;70.00
46508;DHT22;32223;53.654;10.014;2023-06-14T13:37:48;31.10;69.50
46508;DHT22;32223;53.654;10.014;2023-06-14T13:40:14;31.10;69.30
46508;DHT22;32223;53.654;10.014;2023-06-14T13:42:41;31.10;69.10
46508;DHT22;32223;53.654;10.014;2023-06-14T13:45:07;31.30;65.90
46508;DHT22;32223;53.654;10.014;2023-06-14T13:47:33;30.10;65.50
46508;DHT22;32223;53.654;10.014;2023-06-14T13:49:59;29.20;67.60
46508;DHT22;32223;53.654;10.014;2023-06-14T13:52:25;28.20;69.20
46508;DHT22;32223;53.654;10.014;2023-06-14T13:54:50;27.50;70.70
46508;DHT22;32223;53.654;10.014;2023-06-14T13:57:17;28.10;69.40
46508;DHT22;32223;53.654;10.014;2023-06-14T13:59:43;29.00;69.30
46508;DHT22;32223;53.654;10.014;2023-06-14T14:02:12;29.90;67.50
46508;DHT22;32223;53.654;10.014;2023-06-14T14:04:39;30.90;66.80
46508;DHT22;32223;53.654;10.014;2023-06-14T14:07:05;31.40;65.10
46508;DHT22;32223;53.654;10.014;2023-06-14T14:09:35;31.60;64.20
46508;DHT22;32223;53.654;10.014;2023-06-14T14:12:01;31.90;63.60
46508;DHT22;32223;53.654;10.014;2023-06-14T14:14:31;32.10;62.00
46508;DHT22;32223;53.654;10.014;2023-06-14T14:16:57;31.80;62.50
46508;DHT22;32223;53.654;10.014;2023-06-14T14:19:23;32.00;61.70
46508;DHT22;32223;53.654;10.014;2023-06-14T14:21:49;31.70;61.60
46508;DHT22;32223;53.654;10.014;2023-06-14T14:24:14;32.00;62.80
46508;DHT22;32223;53.654;10.014;2023-06-14T14:26:41;32.40;61.30
46508;DHT22;32223;53.654;10.014;2023-06-14T14:29:07;32.20;60.30
46508;DHT22;32223;53.654;10.014;2023-06-14T14:31:32;31.70;59.90
46508;DHT22;32223;53.654;10.014;2023-06-14T14:33:58;30.80;61.10
46508;DHT22;32223;53.654;10.014;2023-06-14T14:36:24;30.10;61.50
46508;DHT22;32223;53.654;10.014;2023-06-14T14:38:49;30.40;62.30
46508;DHT22;32223;53.654;10.014;2023-06-14T14:41:17;31.00;61.00
46508;DHT22;32223;53.654;10.014;2023-06-14T14:43:42;31.40;60.60
46508;DHT22;32223;53.654;10.014;2023-06-14T14:46:08;31.80;59.70
46508;DHT22;32223;53.654;10.014;2023-06-14T14:48:34;32.10;59.30
46508;DHT22;32223;53.654;10.014;2023-06-14T14:50:59;31.80;58.50
46508;DHT22;32223;53.654;10.014;2023-06-14T14:53:25;31.60;59.20
46508;DHT22;32223;53.654;10.014;2023-06-14T14:55:50;31.30;58.60
46508;DHT22;32223;53.654;10.014;2023-06-14T14:58:16;31.40;58.80
46508;DHT22;32223;53.654;10.014;2023-06-14T15:00:45;31.00;58.80
46508;DHT22;32223;53.654;10.014;2023-06-14T15:03:11;31.30;59.10
46508;DHT22;32223;53.654;10.014;2023-06-14T15:05:37;31.40;58.70
46508;DHT22;32223;53.654;10.014;2023-06-14T15:08:03;31.70;58.40
46508;DHT22;32223;53.654;10.014;2023-06-14T15:10:29;32.20;57.00
46508;DHT22;32223;53.654;10.014;2023-06-14T15:12:54;32.10;56.50
46508;DHT22;32223;53.654;10.014;2023-06-14T15:15:21;31.90;57.40
46508;DHT22;32223;53.654;10.014;2023-06-14T15:17:47;32.00;57.30
46508;DHT22;32223;53.654;10.014;2023-06-14T15:20:12;32.10;56.70
46508;DHT22;32223;53.654;10.014;2023-06-14T15:22:39;32.00;57.00
46508;DHT22;32223;53.654;10.014;2023-06-14T15:25:05;32.10;57.10
46508;DHT22;32223;53.654;10.014;2023-06-14T15:27:31;31.80;56.70
46508;DHT22;32223;53.654;10.014;2023-06-14T15:29:56;31.50;55.70
46508;DHT22;32223;53.654;10.014;2023-06-14T15:32:22;31.70;56.70